createdAt,value
2019-05-14T00:00:36.653Z,7.44
2019-05-14T00:01:36.731Z,7.42
2019-05-14T00:02:36.575Z,7.42
2019-05-14T00:03:37.647Z,7.42
2019-05-14T00:04:36.519Z,7.37
2019-05-14T00:05:36.532Z,7.45
2019-05-14T00:06:36.466Z,7.42
2019-05-14T00:07:36.447Z,7.30
2019-05-14T00:08:36.391Z,7.41
2019-05-14T00:09:37.483Z,7.30
2019-05-14T00:10:36.358Z,7.32
2019-05-14T00:11:45.093Z,7.30
2019-05-14T00:12:36.271Z,7.32
2019-05-14T00:13:36.319Z,7.30
2019-05-14T00:14:40.064Z,7.24
2019-05-14T00:15:36.266Z,7.21
2019-05-14T00:16:36.181Z,7.18
2019-05-14T00:17:36.207Z,7.18
2019-05-14T00:18:36.118Z,7.18
2019-05-14T00:19:36.123Z,7.16
2019-05-14T00:20:36.070Z,7.12
2019-05-14T00:21:36.136Z,7.09
2019-05-14T00:22:36.044Z,7.08
2019-05-14T00:23:36.051Z,7.08
2019-05-14T00:24:35.957Z,7.00
2019-05-14T00:25:37.048Z,7.12
2019-05-14T00:26:35.884Z,6.99
2019-05-14T00:27:35.901Z,7.04
2019-05-14T00:28:35.828Z,7.01
2019-05-14T00:29:35.783Z,7.00
2019-05-14T00:30:36.889Z,6.96
2019-05-14T00:31:35.729Z,6.90
2019-05-14T00:32:37.852Z,6.93
2019-05-14T00:33:35.664Z,6.93
2019-05-14T00:34:35.669Z,6.90
2019-05-14T00:35:35.872Z,6.76
2019-05-14T00:36:43.596Z,6.79
2019-05-14T00:37:35.552Z,6.75
2019-05-14T00:38:36.598Z,6.75
2019-05-14T00:39:35.481Z,6.73
2019-05-14T00:40:35.518Z,6.79
2019-05-14T00:41:35.429Z,6.82
2019-05-14T00:42:35.411Z,6.73
2019-05-14T00:43:35.424Z,6.76
2019-05-14T00:44:35.355Z,6.76
2019-05-14T00:45:35.334Z,6.72
2019-05-14T00:46:35.292Z,6.71
2019-05-14T00:47:35.271Z,6.82
2019-05-14T00:48:35.219Z,6.78
2019-05-14T00:49:35.230Z,6.69
2019-05-14T00:50:42.173Z,6.69
2019-05-14T00:51:35.146Z,6.64
2019-05-14T00:52:35.138Z,6.78
2019-05-14T00:53:35.086Z,6.68
2019-05-14T00:54:35.041Z,6.63
2019-05-14T00:55:35.065Z,6.69
2019-05-14T00:56:35.008Z,6.63
2019-05-14T00:57:36.017Z,6.65
2019-05-14T00:58:34.946Z,6.73
2019-05-14T00:59:35.999Z,6.61
2019-05-14T01:00:34.878Z,6.60
2019-05-14T01:01:34.881Z,6.63
2019-05-14T01:02:34.826Z,6.65
2019-05-14T01:03:35.841Z,6.65
2019-05-14T01:04:34.770Z,6.65
2019-05-14T01:05:34.894Z,6.60
2019-05-14T01:06:34.693Z,6.63
2019-05-14T01:07:34.760Z,6.64
2019-05-14T01:08:34.679Z,6.64
2019-05-14T01:09:34.624Z,6.57
2019-05-14T01:10:41.879Z,6.60
2019-05-14T01:11:34.552Z,6.55
2019-05-14T01:12:35.606Z,6.48
2019-05-14T01:13:34.514Z,6.50
2019-05-14T01:14:34.517Z,6.48
2019-05-14T01:15:34.423Z,6.45
2019-05-14T01:16:34.529Z,6.35
2019-05-14T01:17:34.376Z,6.38
2019-05-14T01:18:34.448Z,6.36
2019-05-14T01:19:34.312Z,6.30
2019-05-14T01:20:34.362Z,6.35
2019-05-14T01:21:34.277Z,6.30
2019-05-14T01:22:34.251Z,6.27
2019-05-14T01:23:34.205Z,6.17
2019-05-14T01:24:34.267Z,6.32
2019-05-14T01:25:34.142Z,6.14
2019-05-14T01:26:35.166Z,6.16
2019-05-14T01:27:34.174Z,6.08
2019-05-14T01:28:36.129Z,6.13
2019-05-14T01:29:34.041Z,6.08
2019-05-14T01:30:34.111Z,6.05
2019-05-14T01:31:33.959Z,6.03
2019-05-14T01:32:34.030Z,5.99
2019-05-14T01:33:33.898Z,5.98
2019-05-14T01:34:33.926Z,5.85
2019-05-14T01:35:33.853Z,5.80
2019-05-14T01:36:33.941Z,5.80
2019-05-14T01:37:33.778Z,5.74
2019-05-14T01:38:33.940Z,5.75
2019-05-14T01:39:33.715Z,5.73
2019-05-14T01:40:33.772Z,5.75
2019-05-14T01:41:33.664Z,5.60
2019-05-14T01:42:33.696Z,5.67
2019-05-14T01:43:33.588Z,5.70
2019-05-14T01:44:33.697Z,5.66
2019-05-14T01:45:33.533Z,5.63
2019-05-14T01:46:34.608Z,5.63
2019-05-14T01:47:33.521Z,5.60
2019-05-14T01:48:33.588Z,5.66
2019-05-14T01:49:33.438Z,5.63
2019-05-14T01:50:33.395Z,5.65
2019-05-14T01:51:33.367Z,5.62
2019-05-14T01:52:33.335Z,5.62
2019-05-14T01:53:33.312Z,5.56
2019-05-14T01:54:33.280Z,5.58
2019-05-14T01:55:33.255Z,5.58
2019-05-14T01:56:33.242Z,5.44
2019-05-14T01:57:33.273Z,5.49
2019-05-14T01:58:33.157Z,5.48
2019-05-14T01:59:33.177Z,5.44
2019-05-14T02:00:33.105Z,5.42
2019-05-14T02:01:33.108Z,5.42
2019-05-14T02:02:33.068Z,5.41
2019-05-14T02:03:33.100Z,5.33
2019-05-14T02:04:33.021Z,5.30
2019-05-14T02:05:33.016Z,5.37
2019-05-14T02:06:32.918Z,5.40
2019-05-14T02:07:32.946Z,5.26
2019-05-14T02:08:32.878Z,5.27
2019-05-14T02:09:32.960Z,5.19
2019-05-14T02:10:32.811Z,5.20
2019-05-14T02:11:32.857Z,5.17
2019-05-14T02:12:32.741Z,5.11
2019-05-14T02:13:32.787Z,5.06
2019-05-14T02:14:32.687Z,4.99
2019-05-14T02:15:39.042Z,5.11
2019-05-14T02:16:32.643Z,4.99
2019-05-14T02:17:32.690Z,5.09
2019-05-14T02:18:32.564Z,5.12
2019-05-14T02:19:32.591Z,4.99
2019-05-14T02:20:32.505Z,5.08
2019-05-14T02:21:32.536Z,4.97
2019-05-14T02:22:32.454Z,5.02
2019-05-14T02:23:32.532Z,4.91
2019-05-14T02:24:32.425Z,4.90
2019-05-14T02:25:32.432Z,4.79
2019-05-14T02:26:32.348Z,4.87
2019-05-14T02:27:34.858Z,4.88
2019-05-14T02:28:32.267Z,4.87
2019-05-14T02:29:32.348Z,4.80
2019-05-14T02:30:47.014Z,4.80
2019-05-14T02:31:32.193Z,4.77
2019-05-14T02:32:32.151Z,4.77
2019-05-14T02:33:32.122Z,4.75
2019-05-14T02:34:32.111Z,4.71
2019-05-14T02:35:32.061Z,4.77
2019-05-14T02:36:32.027Z,4.77
2019-05-14T02:37:32.012Z,4.74
2019-05-14T02:38:31.969Z,4.72
2019-05-14T02:39:31.969Z,4.72
2019-05-14T02:40:31.922Z,4.74
2019-05-14T02:41:31.897Z,4.69
2019-05-14T02:42:31.856Z,4.69
2019-05-14T02:43:31.821Z,4.62
2019-05-14T02:44:31.779Z,4.62
2019-05-14T02:45:31.769Z,4.61
2019-05-14T02:46:31.726Z,4.61
2019-05-14T02:47:31.715Z,4.54
2019-05-14T02:48:31.673Z,4.62
2019-05-14T02:49:31.667Z,4.51
2019-05-14T02:50:31.596Z,4.53
2019-05-14T02:51:31.577Z,4.51
2019-05-14T02:52:31.546Z,4.51
2019-05-14T02:53:31.542Z,4.53
2019-05-14T02:54:31.495Z,4.56
2019-05-14T02:55:31.463Z,4.51
2019-05-14T02:56:31.434Z,4.51
2019-05-14T02:57:31.475Z,4.49
2019-05-14T02:58:31.373Z,4.49
2019-05-14T02:59:31.339Z,4.47
2019-05-14T03:00:31.316Z,4.56
2019-05-14T03:01:31.289Z,4.36
2019-05-14T03:02:31.246Z,4.47
2019-05-14T03:03:31.215Z,4.49
2019-05-14T03:04:31.214Z,4.39
2019-05-14T03:05:31.163Z,4.43
2019-05-14T03:06:31.120Z,4.35
2019-05-14T03:07:31.104Z,4.43
2019-05-14T03:08:31.090Z,4.42
2019-05-14T03:09:31.058Z,4.38
2019-05-14T03:10:31.002Z,4.32
2019-05-14T03:11:31.012Z,4.31
2019-05-14T03:12:30.953Z,4.38
2019-05-14T03:13:30.974Z,4.28
2019-05-14T03:14:30.887Z,4.24
2019-05-14T03:15:30.857Z,4.31
2019-05-14T03:16:35.392Z,4.31
2019-05-14T03:17:30.801Z,4.42
2019-05-14T03:18:30.764Z,4.32
2019-05-14T03:19:30.735Z,4.34
2019-05-14T03:20:30.735Z,4.38
2019-05-14T03:21:30.796Z,4.39
2019-05-14T03:22:43.453Z,4.42
2019-05-14T03:23:30.700Z,4.39
2019-05-14T03:24:30.614Z,4.43
2019-05-14T03:25:30.596Z,4.44
2019-05-14T03:26:30.534Z,4.50
2019-05-14T03:27:31.542Z,4.50
2019-05-14T03:28:30.792Z,4.53
2019-05-14T03:29:31.108Z,4.53
2019-05-14T03:30:32.234Z,4.54
2019-05-14T03:31:33.071Z,4.46
2019-05-14T03:32:32.948Z,4.50
2019-05-14T03:33:33.168Z,4.46
2019-05-14T03:34:33.075Z,4.44
2019-05-14T03:35:41.319Z,4.49
2019-05-14T03:36:34.862Z,4.46
2019-05-14T03:37:31.146Z,4.53
2019-05-14T03:38:30.163Z,4.54
2019-05-14T03:39:30.207Z,4.51
2019-05-14T03:40:30.113Z,4.53
2019-05-14T03:41:30.753Z,4.56
2019-05-14T03:42:30.036Z,4.53
2019-05-14T03:43:30.119Z,4.64
2019-05-14T03:44:29.980Z,4.56
2019-05-14T03:45:30.351Z,4.61
2019-05-14T03:46:44.242Z,4.67
2019-05-14T03:47:30.044Z,4.65
2019-05-14T03:48:30.028Z,4.77
2019-05-14T03:49:29.850Z,4.84
2019-05-14T03:50:30.031Z,4.84
2019-05-14T03:51:30.081Z,4.90
2019-05-14T03:52:29.761Z,4.94
2019-05-14T03:53:30.035Z,4.94
2019-05-14T03:54:30.086Z,5.06
2019-05-14T03:55:29.680Z,4.97
2019-05-14T03:56:30.049Z,5.14
2019-05-14T03:57:29.610Z,4.99
2019-05-14T03:58:30.374Z,5.04
2019-05-14T03:59:29.632Z,5.19
2019-05-14T04:00:29.505Z,5.20
2019-05-14T04:01:29.944Z,5.22
2019-05-14T04:02:29.801Z,5.27
2019-05-14T04:03:29.707Z,5.20
2019-05-14T04:04:30.131Z,5.27
2019-05-14T04:05:29.559Z,5.32
2019-05-14T04:06:30.234Z,5.32
2019-05-14T04:07:30.314Z,5.42
2019-05-14T04:08:29.515Z,5.37
2019-05-14T04:09:29.463Z,5.38
2019-05-14T04:10:30.097Z,5.42
2019-05-14T04:11:29.547Z,5.37
2019-05-14T04:12:29.539Z,5.52
2019-05-14T04:13:30.299Z,5.58
2019-05-14T04:14:29.325Z,5.60
2019-05-14T04:15:29.851Z,5.62
2019-05-14T04:16:29.345Z,5.58
2019-05-14T04:17:37.127Z,5.66
2019-05-14T04:18:29.282Z,5.67
2019-05-14T04:19:29.678Z,5.74
2019-05-14T04:20:29.761Z,5.65
2019-05-14T04:21:29.729Z,5.74
2019-05-14T04:22:29.910Z,5.75
2019-05-14T04:23:29.202Z,5.74
2019-05-14T04:24:29.619Z,5.73
2019-05-14T04:25:29.651Z,5.90
2019-05-14T04:26:30.233Z,5.84
2019-05-14T04:27:30.149Z,5.90
2019-05-14T04:28:29.836Z,5.90
2019-05-14T04:29:30.687Z,5.99
2019-05-14T04:30:29.147Z,5.98
2019-05-14T04:31:29.910Z,6.02
2019-05-14T04:32:29.254Z,5.93
2019-05-14T04:33:30.399Z,5.99
2019-05-14T04:34:30.035Z,6.05
2019-05-14T04:35:35.158Z,5.98
2019-05-14T04:36:30.023Z,5.96
2019-05-14T04:37:29.086Z,5.99
2019-05-14T04:38:29.928Z,6.06
2019-05-14T04:39:30.786Z,6.06
2019-05-14T04:40:29.670Z,5.99
2019-05-14T04:41:29.900Z,5.98
2019-05-14T04:42:29.538Z,6.03
2019-05-14T04:43:29.414Z,6.08
2019-05-14T04:44:29.696Z,6.03
2019-05-14T04:45:29.795Z,6.02
2019-05-14T04:46:30.250Z,6.16
2019-05-14T04:47:35.922Z,6.05
2019-05-14T04:48:36.424Z,6.17
2019-05-14T04:49:29.060Z,6.14
2019-05-14T04:50:29.706Z,6.30
2019-05-14T04:51:30.205Z,6.24
2019-05-14T04:52:29.306Z,6.33
2019-05-14T04:53:30.868Z,6.46
2019-05-14T04:54:30.185Z,6.45
2019-05-14T04:55:29.685Z,6.51
2019-05-14T04:56:30.187Z,6.54
2019-05-14T04:57:29.968Z,6.64
2019-05-14T04:58:34.636Z,6.73
2019-05-14T04:59:29.896Z,6.72
2019-05-14T05:00:30.490Z,6.82
2019-05-14T05:01:29.484Z,6.83
2019-05-14T05:02:30.143Z,6.90
2019-05-14T05:03:31.390Z,6.87
2019-05-14T05:04:29.897Z,7.04
2019-05-14T05:05:29.909Z,7.07
2019-05-14T05:06:35.187Z,7.07
2019-05-14T05:07:29.815Z,7.12
2019-05-14T05:08:35.095Z,7.04
2019-05-14T05:09:29.338Z,7.05
2019-05-14T05:10:29.779Z,7.11
2019-05-14T05:11:29.111Z,7.15
2019-05-14T05:12:29.581Z,7.15
2019-05-14T05:13:29.133Z,7.14
2019-05-14T05:14:29.687Z,7.09
2019-05-14T05:15:29.037Z,7.19
2019-05-14T05:16:29.564Z,7.16
2019-05-14T05:17:42.706Z,7.11
2019-05-14T05:18:29.618Z,7.11
2019-05-14T05:19:29.059Z,7.19
2019-05-14T05:20:29.128Z,7.24
2019-05-14T05:21:28.293Z,7.32
2019-05-14T05:22:28.618Z,7.33
2019-05-14T05:23:28.280Z,7.34
2019-05-14T05:24:28.778Z,7.29
2019-05-14T05:25:29.083Z,7.33
2019-05-14T05:26:28.601Z,7.33
2019-05-14T05:27:28.690Z,7.29
2019-05-14T05:28:28.835Z,7.19
2019-05-14T05:29:28.614Z,7.33
2019-05-14T05:30:29.456Z,7.32
2019-05-14T05:31:28.390Z,7.47
2019-05-14T05:32:28.552Z,7.42
2019-05-14T05:33:29.131Z,7.41
2019-05-14T05:34:28.275Z,7.45
2019-05-14T05:35:29.013Z,7.50
2019-05-14T05:36:28.859Z,7.47
2019-05-14T05:37:26.543Z,7.51
2019-05-14T05:38:28.978Z,7.47
2019-05-14T05:39:28.210Z,7.52
2019-05-14T05:40:28.662Z,7.47
2019-05-14T05:41:28.217Z,7.52
2019-05-14T05:42:29.265Z,7.60
2019-05-14T05:43:28.404Z,7.57
2019-05-14T05:44:28.547Z,7.60
2019-05-14T05:45:29.037Z,7.69
2019-05-14T05:46:28.572Z,7.73
2019-05-14T05:47:28.550Z,7.79
2019-05-14T05:48:28.370Z,7.76
2019-05-14T05:49:26.214Z,7.70
2019-05-14T05:50:28.552Z,7.82
2019-05-14T05:51:28.698Z,7.84
2019-05-14T05:52:28.206Z,7.86
2019-05-14T05:53:28.495Z,7.86
2019-05-14T05:54:26.031Z,7.81
2019-05-14T05:55:28.633Z,7.86
2019-05-14T05:56:25.959Z,7.89
2019-05-14T05:57:28.305Z,7.95
2019-05-14T05:58:29.608Z,7.94
2019-05-14T05:59:25.901Z,7.99
2019-05-14T06:00:25.855Z,8.00
2019-05-14T06:01:41.204Z,8.02
2019-05-14T06:02:25.769Z,8.04
2019-05-14T06:03:29.627Z,8.12
2019-05-14T06:04:25.702Z,8.14
2019-05-14T06:05:25.718Z,8.09
2019-05-14T06:06:25.642Z,8.12
2019-05-14T06:07:25.781Z,8.20
2019-05-14T06:08:28.050Z,8.14
2019-05-14T06:09:25.661Z,8.18
2019-05-14T06:10:25.508Z,8.21
2019-05-14T06:11:25.643Z,8.22
2019-05-14T06:12:25.899Z,8.24
2019-05-14T06:13:25.569Z,8.28
2019-05-14T06:14:25.413Z,8.39
2019-05-14T06:15:25.479Z,8.36
2019-05-14T06:16:25.333Z,8.37
2019-05-14T06:17:25.412Z,8.46
2019-05-14T06:18:25.273Z,8.50
2019-05-14T06:19:25.279Z,8.49
2019-05-14T06:20:25.217Z,8.67
2019-05-14T06:21:25.350Z,8.76
2019-05-14T06:22:25.150Z,8.82
2019-05-14T06:23:25.211Z,8.89
2019-05-14T06:24:25.106Z,9.01
2019-05-14T06:25:25.150Z,9.01
2019-05-14T06:26:25.035Z,9.01
2019-05-14T06:27:25.032Z,9.10
2019-05-14T06:28:28.387Z,9.19
2019-05-14T06:29:25.024Z,9.30
2019-05-14T06:30:24.916Z,9.19
2019-05-14T06:31:25.966Z,9.30
2019-05-14T06:32:24.872Z,9.27
2019-05-14T06:33:24.875Z,9.27
2019-05-14T06:34:24.875Z,9.31
2019-05-14T06:35:24.888Z,9.27
2019-05-14T06:36:24.724Z,9.30
2019-05-14T06:37:24.797Z,9.30
2019-05-14T06:38:24.683Z,9.23
2019-05-14T06:39:24.658Z,9.30
2019-05-14T06:40:24.722Z,9.26
2019-05-14T06:41:24.597Z,9.30
2019-05-14T06:42:24.620Z,9.37
2019-05-14T06:43:24.508Z,9.40
2019-05-14T06:44:24.519Z,9.38
2019-05-14T06:45:24.441Z,9.44
2019-05-14T06:46:24.419Z,9.59
2019-05-14T06:47:24.452Z,9.63
2019-05-14T06:48:30.824Z,9.67
2019-05-14T06:49:24.329Z,9.71
2019-05-14T06:50:24.296Z,9.71
2019-05-14T06:51:24.265Z,9.75
2019-05-14T06:52:24.251Z,9.75
2019-05-14T06:53:24.220Z,9.77
2019-05-14T06:54:24.183Z,9.75
2019-05-14T06:55:24.169Z,9.80
2019-05-14T06:56:24.135Z,9.83
2019-05-14T06:57:24.106Z,9.88
2019-05-14T06:58:24.073Z,9.96
2019-05-14T06:59:24.045Z,9.99
2019-05-14T07:00:24.005Z,10.13
2019-05-14T07:01:24.610Z,10.10
2019-05-14T07:02:23.936Z,10.16
2019-05-14T07:03:23.918Z,10.13
2019-05-14T07:04:23.910Z,10.11
2019-05-14T07:05:23.833Z,10.17
2019-05-14T07:06:23.831Z,10.11
2019-05-14T07:07:23.781Z,10.10
2019-05-14T07:08:23.749Z,10.18
2019-05-14T07:09:23.747Z,10.10
2019-05-14T07:10:23.696Z,10.17
2019-05-14T07:11:23.682Z,10.26
2019-05-14T07:12:23.677Z,10.34
2019-05-14T07:13:23.646Z,10.34
2019-05-14T07:14:23.572Z,10.34
2019-05-14T07:15:23.566Z,10.24
2019-05-14T07:16:23.515Z,10.35
2019-05-14T07:17:23.493Z,10.25
2019-05-14T07:18:23.441Z,10.31
2019-05-14T07:19:23.438Z,10.31
2019-05-14T07:20:23.416Z,10.35
2019-05-14T07:21:23.393Z,10.34
2019-05-14T07:22:23.346Z,10.20
2019-05-14T07:23:23.320Z,10.26
2019-05-14T07:24:23.265Z,10.18
2019-05-14T07:25:23.261Z,10.28
2019-05-14T07:26:23.262Z,10.31
2019-05-14T07:27:23.247Z,10.28
2019-05-14T07:28:23.159Z,10.29
2019-05-14T07:29:23.137Z,10.26
2019-05-14T07:30:23.121Z,10.36
2019-05-14T07:31:23.115Z,10.28
2019-05-14T07:32:23.050Z,10.32
2019-05-14T07:33:25.353Z,10.24
2019-05-14T07:34:22.986Z,10.28
2019-05-14T07:35:22.947Z,10.34
2019-05-14T07:36:22.899Z,10.39
2019-05-14T07:37:22.902Z,10.38
2019-05-14T07:38:22.846Z,10.49
2019-05-14T07:39:22.815Z,10.54
2019-05-14T07:40:22.791Z,10.70
2019-05-14T07:41:22.767Z,10.72
2019-05-14T07:42:22.724Z,10.76
2019-05-14T07:43:22.712Z,10.69
2019-05-14T07:44:22.703Z,10.72
2019-05-14T07:45:22.646Z,10.70
2019-05-14T07:46:22.612Z,10.73
2019-05-14T07:47:22.617Z,10.76
2019-05-14T07:48:22.550Z,10.73
2019-05-14T07:49:22.539Z,10.80
2019-05-14T07:50:22.499Z,10.70
2019-05-14T07:51:22.464Z,10.80
2019-05-14T07:52:22.448Z,10.78
2019-05-14T07:53:35.301Z,10.75
2019-05-14T07:54:22.392Z,10.75
2019-05-14T07:55:22.325Z,10.88
2019-05-14T07:56:22.295Z,10.88
2019-05-14T07:57:22.280Z,10.91
2019-05-14T07:58:22.252Z,11.06
2019-05-14T07:59:22.222Z,11.03
2019-05-14T08:00:22.215Z,10.99
2019-05-14T08:01:22.171Z,11.19
2019-05-14T08:02:22.137Z,11.11
2019-05-14T08:03:22.113Z,10.99
2019-05-14T08:04:22.214Z,11.03
2019-05-14T08:05:22.055Z,11.03
2019-05-14T08:06:22.011Z,11.17
2019-05-14T08:07:21.982Z,11.24
2019-05-14T08:08:22.015Z,11.31
2019-05-14T08:09:21.917Z,11.30
2019-05-14T08:10:21.900Z,11.31
2019-05-14T08:11:22.541Z,11.35
2019-05-14T08:12:21.813Z,11.26
2019-05-14T08:13:21.785Z,11.27
2019-05-14T08:14:21.783Z,11.30
2019-05-14T08:15:22.568Z,11.39
2019-05-14T08:16:21.803Z,11.41
2019-05-14T08:17:21.752Z,11.48
2019-05-14T08:18:21.688Z,11.51
2019-05-14T08:19:26.835Z,11.48
2019-05-14T08:20:21.582Z,11.56
2019-05-14T08:21:21.534Z,11.48
2019-05-14T08:22:21.538Z,11.54
2019-05-14T08:23:21.494Z,11.44
2019-05-14T08:24:26.651Z,11.62
2019-05-14T08:25:21.419Z,11.63
2019-05-14T08:26:21.401Z,11.69
2019-05-14T08:27:21.368Z,11.69
2019-05-14T08:28:21.352Z,11.94
2019-05-14T08:29:21.291Z,11.96
2019-05-14T08:30:21.278Z,11.97
2019-05-14T08:31:21.236Z,12.05
2019-05-14T08:32:21.224Z,12.13
2019-05-14T08:33:21.174Z,12.15
2019-05-14T08:34:21.142Z,12.18
2019-05-14T08:35:21.146Z,12.18
2019-05-14T08:36:21.078Z,12.16
2019-05-14T08:37:21.067Z,12.19
2019-05-14T08:38:21.042Z,12.16
2019-05-14T08:39:21.008Z,12.30
2019-05-14T08:40:21.101Z,12.41
2019-05-14T08:41:20.943Z,12.43
2019-05-14T08:42:20.900Z,12.48
2019-05-14T08:43:20.882Z,12.55
2019-05-14T08:44:20.849Z,12.81
2019-05-14T08:45:20.840Z,12.79
2019-05-14T08:46:20.779Z,13.01
2019-05-14T08:47:20.757Z,13.06
2019-05-14T08:48:20.729Z,13.06
2019-05-14T08:49:20.690Z,13.14
2019-05-14T08:50:20.650Z,13.16
2019-05-14T08:51:20.652Z,13.19
2019-05-14T08:52:20.646Z,13.06
2019-05-14T08:53:20.577Z,13.21
2019-05-14T08:54:20.589Z,13.10
2019-05-14T08:55:20.610Z,13.17
2019-05-14T08:56:20.486Z,13.22
2019-05-14T08:57:20.533Z,13.31
2019-05-14T08:58:22.581Z,13.48
2019-05-14T08:59:20.436Z,13.41
2019-05-14T09:00:20.401Z,13.57
2019-05-14T09:01:20.349Z,13.59
2019-05-14T09:02:20.327Z,13.69
2019-05-14T09:03:20.274Z,13.83
2019-05-14T09:05:20.218Z,13.71
2019-05-14T09:06:20.243Z,13.75
2019-05-14T09:07:20.137Z,13.86
2019-05-14T09:08:21.048Z,13.96
2019-05-14T09:09:22.193Z,13.99
2019-05-14T09:10:20.072Z,14.05
2019-05-14T09:11:24.094Z,14.08
2019-05-14T09:12:19.998Z,14.31
2019-05-14T09:13:19.967Z,14.56
2019-05-14T09:14:19.952Z,14.72
2019-05-14T09:15:19.893Z,14.67
2019-05-14T09:16:41.921Z,14.74
2019-05-14T09:17:19.843Z,14.69
2019-05-14T09:18:19.816Z,14.34
2019-05-14T09:19:21.818Z,14.24
2019-05-14T09:20:19.770Z,14.04
2019-05-14T09:21:20.535Z,14.26
2019-05-14T09:22:19.786Z,14.23
2019-05-14T09:23:19.759Z,14.45
2019-05-14T09:24:19.685Z,14.21
2019-05-14T09:25:20.726Z,14.24
2019-05-14T09:26:19.580Z,14.30
2019-05-14T09:27:19.588Z,14.23
2019-05-14T09:28:28.658Z,14.04
2019-05-14T09:29:25.818Z,14.05
2019-05-14T09:30:19.483Z,13.99
2019-05-14T09:31:20.479Z,13.84
2019-05-14T09:32:19.454Z,13.91
2019-05-14T09:33:23.971Z,13.88
2019-05-14T09:34:19.703Z,13.88
2019-05-14T09:35:19.323Z,13.80
2019-05-14T09:36:23.385Z,13.79
2019-05-14T09:37:19.546Z,13.68
2019-05-14T09:38:19.214Z,13.87
2019-05-14T09:39:19.206Z,13.84
2019-05-14T09:40:19.984Z,13.91
2019-05-14T09:41:19.125Z,14.04
2019-05-14T09:42:19.708Z,13.96
2019-05-14T09:43:19.078Z,14.04
2019-05-14T09:44:19.055Z,14.08
2019-05-14T09:45:19.049Z,13.84
2019-05-14T09:46:18.969Z,13.87
2019-05-14T09:47:19.150Z,13.83
2019-05-14T09:48:19.135Z,13.96
2019-05-14T09:49:18.921Z,13.90
2019-05-14T09:50:23.212Z,13.79
2019-05-14T09:51:18.833Z,13.75
2019-05-14T09:52:19.563Z,13.80
2019-05-14T09:53:18.786Z,13.51
2019-05-14T09:54:19.287Z,13.51
2019-05-14T09:55:18.708Z,13.65
2019-05-14T09:56:18.990Z,13.75
2019-05-14T09:57:19.040Z,13.91
2019-05-14T09:58:19.860Z,14.02
2019-05-14T09:59:18.698Z,14.08
2019-05-14T10:00:18.803Z,14.30
2019-05-14T10:01:19.349Z,14.63
2019-05-14T10:02:18.516Z,14.95
2019-05-14T10:03:19.280Z,15.09
2019-05-14T10:04:18.421Z,15.11
2019-05-14T10:05:19.429Z,15.15
2019-05-14T10:06:25.192Z,15.11
2019-05-14T10:07:18.374Z,15.27
2019-05-14T10:08:19.311Z,15.23
2019-05-14T10:09:20.306Z,15.34
2019-05-14T10:10:19.562Z,15.37
2019-05-14T10:11:18.234Z,15.58
2019-05-14T10:12:18.206Z,15.62
2019-05-14T10:13:32.684Z,15.56
2019-05-14T10:14:18.144Z,15.46
2019-05-14T10:15:18.120Z,15.51
2019-05-14T10:16:49.048Z,15.44
2019-05-14T10:17:19.361Z,15.16
2019-05-14T10:18:18.984Z,15.15
2019-05-14T10:19:19.262Z,15.16
2019-05-14T10:20:35.682Z,15.19
2019-05-14T10:21:19.037Z,15.25
2019-05-14T10:22:19.808Z,15.28
2019-05-14T10:23:18.898Z,15.48
2019-05-14T10:24:18.556Z,15.55
2019-05-14T10:25:18.197Z,15.38
2019-05-14T10:26:18.630Z,15.33
2019-05-14T10:27:18.993Z,15.33
2019-05-14T10:28:19.235Z,15.46
2019-05-14T10:29:19.114Z,15.49
2019-05-14T10:30:18.136Z,15.34
2019-05-14T10:31:18.374Z,15.40
2019-05-14T10:32:18.697Z,15.34
2019-05-14T10:33:18.171Z,15.28
2019-05-14T10:34:24.341Z,15.15
2019-05-14T10:35:19.205Z,15.05
2019-05-14T10:36:19.217Z,15.12
2019-05-14T10:37:19.148Z,15.04
2019-05-14T10:38:18.950Z,15.30
2019-05-14T10:39:19.158Z,15.43
2019-05-14T10:40:18.386Z,15.52
2019-05-14T10:41:18.438Z,15.67
2019-05-14T10:42:40.361Z,15.67
2019-05-14T10:43:19.476Z,15.71
2019-05-14T10:44:18.736Z,15.74
2019-05-14T10:45:18.680Z,15.74
2019-05-14T10:46:19.331Z,15.74
2019-05-14T10:47:18.715Z,15.77
2019-05-14T10:48:18.637Z,15.76
2019-05-14T10:49:23.569Z,15.58
2019-05-14T10:50:18.268Z,15.55
2019-05-14T10:51:18.033Z,15.56
2019-05-14T10:52:19.776Z,15.67
2019-05-14T10:53:16.995Z,15.68
2019-05-14T10:54:25.007Z,15.71
2019-05-14T14:17:07.257Z,17.27
2019-05-14T14:17:49.602Z,17.33
2019-05-14T14:18:50.337Z,17.07
2019-05-14T14:19:48.789Z,16.99
2019-05-14T14:20:50.804Z,16.78
2019-05-14T14:21:49.424Z,16.77
2019-05-14T14:23:21.550Z,16.66
2019-05-14T14:23:49.413Z,16.29
2019-05-14T14:24:49.749Z,16.47
2019-05-14T14:25:54.917Z,16.59
2019-05-14T14:27:19.379Z,16.63
2019-05-14T14:27:48.810Z,16.84
2019-05-14T14:28:49.421Z,17.00
2019-05-14T14:47:21.081Z,16.63
2019-05-14T14:47:55.977Z,16.57
2019-05-14T14:48:58.934Z,16.73
2019-05-14T14:50:00.152Z,16.60
2019-05-14T14:50:58.671Z,16.57
2019-05-14T14:51:58.750Z,16.72
2019-05-14T15:34:19.085Z,16.82
2019-05-14T15:35:18.905Z,16.98
2019-05-14T15:36:19.418Z,16.99
2019-05-14T15:37:18.890Z,17.17
2019-05-14T15:38:16.738Z,17.07
2019-05-14T15:39:22.006Z,16.98
2019-05-14T15:40:22.076Z,16.98
2019-05-14T15:41:19.300Z,16.98
2019-05-14T15:42:19.097Z,16.96
2019-05-14T15:43:18.796Z,16.90
2019-05-14T15:44:19.392Z,16.63
2019-05-14T15:45:18.041Z,16.63
2019-05-14T15:46:18.509Z,16.55
2019-05-14T15:47:18.816Z,16.40
2019-05-14T15:48:19.666Z,16.41
2019-05-14T15:49:18.956Z,16.45
2019-05-14T15:50:16.467Z,16.44
2019-05-14T15:51:18.829Z,16.34
2019-05-14T15:52:18.986Z,16.41
2019-05-14T15:53:16.287Z,16.42
2019-05-14T15:54:36.310Z,16.55
2019-05-14T15:55:18.159Z,16.52
2019-05-14T15:56:18.576Z,16.67
2019-05-14T15:57:18.980Z,16.65
2019-05-14T15:58:20.864Z,16.70
2019-05-14T15:59:16.212Z,16.88
2019-05-14T16:00:16.098Z,16.82
2019-05-14T16:01:19.088Z,16.82
2019-05-14T16:02:16.060Z,16.90
2019-05-14T16:03:18.646Z,16.91
2019-05-14T16:04:15.989Z,16.78
2019-05-14T16:05:18.766Z,16.69
2019-05-14T16:06:15.936Z,16.63
2019-05-14T16:07:18.463Z,16.57
2019-05-14T16:08:18.770Z,16.32
2019-05-14T16:09:19.189Z,16.41
2019-05-14T16:10:15.870Z,16.32
2019-05-14T16:11:18.376Z,16.42
2019-05-14T16:12:15.772Z,16.36
2019-05-14T16:13:15.742Z,16.32
2019-05-14T16:14:15.820Z,16.26
2019-05-14T16:15:15.817Z,16.32
2019-05-14T16:16:15.673Z,16.41
2019-05-14T16:17:15.801Z,16.42
2019-05-14T16:18:18.961Z,16.44
2019-05-14T16:20:18.594Z,16.29
2019-05-14T16:21:18.026Z,16.18
2019-05-14T16:22:19.139Z,16.18
2019-05-14T16:23:15.486Z,16.36
2019-05-14T16:24:32.345Z,16.36
2019-05-14T16:25:15.410Z,16.36
2019-05-14T16:26:39.330Z,16.59
2019-05-14T16:27:15.383Z,16.50
2019-05-14T16:28:15.370Z,16.55
2019-05-14T16:29:15.409Z,16.50
2019-05-14T16:30:15.309Z,16.69
2019-05-14T16:31:24.325Z,16.65
2019-05-14T16:32:15.263Z,16.63
2019-05-14T16:33:18.664Z,16.70
2019-05-14T16:34:15.200Z,16.47
2019-05-14T16:35:22.824Z,16.32
2019-05-14T16:36:15.165Z,16.22
2019-05-14T16:37:21.812Z,16.16
2019-05-14T16:38:15.195Z,16.03
2019-05-14T16:39:39.019Z,16.08
2019-05-14T16:40:15.025Z,16.01
2019-05-14T16:42:14.951Z,15.89
2019-05-14T16:43:35.983Z,15.93
2019-05-14T16:44:14.913Z,15.81
2019-05-14T17:49:19.118Z,15.52
2019-05-14T17:50:20.365Z,15.56
2019-05-14T17:51:18.342Z,15.64
2019-05-14T17:52:21.816Z,15.56
2019-05-14T17:53:18.384Z,15.59
2019-05-14T17:54:19.260Z,15.60
2019-05-14T17:55:18.773Z,15.66
2019-05-14T17:56:28.389Z,15.60
2019-05-14T17:57:24.453Z,15.68
2019-05-14T17:58:20.229Z,15.62
2019-05-14T17:59:19.093Z,15.55
2019-05-14T18:00:18.230Z,15.55
2019-05-14T18:01:18.362Z,15.60
2019-05-14T18:02:19.110Z,15.58
2019-05-14T18:03:18.403Z,15.56
2019-05-14T18:04:20.054Z,15.53
2019-05-14T18:05:18.753Z,15.52
2019-05-14T18:06:18.895Z,15.59
2019-05-14T18:07:19.192Z,15.59
2019-05-14T18:08:19.879Z,15.51
2019-05-14T18:09:19.759Z,15.43
2019-05-14T18:10:49.719Z,15.51
2019-05-14T18:11:19.159Z,15.46
2019-05-14T18:12:18.989Z,15.46
2019-05-14T18:13:18.246Z,15.37
2019-05-14T18:14:19.059Z,15.44
2019-05-14T18:15:25.803Z,15.43
2019-05-14T18:16:19.231Z,15.40
2019-05-14T18:17:18.825Z,15.43
2019-05-14T18:18:18.479Z,15.33
2019-05-14T18:19:33.166Z,15.35
2019-05-14T18:20:17.546Z,15.34
2019-05-14T18:21:33.175Z,15.37
2019-05-14T18:22:19.300Z,15.19
2019-05-14T18:23:28.783Z,15.23
2019-05-14T18:24:18.931Z,15.20
2019-05-14T18:25:24.260Z,15.20
2019-05-14T18:26:18.887Z,15.15
2019-05-14T18:27:19.503Z,15.16
2019-05-14T18:28:17.980Z,15.19
2019-05-14T18:29:32.200Z,15.20
2019-05-14T18:30:18.232Z,15.22
2019-05-14T18:31:20.609Z,15.19
2019-05-14T18:32:19.025Z,15.13
2019-05-14T18:33:18.753Z,15.07